createdAt,value
2023-04-02T00:00:10.594Z,96102.92
2023-04-02T00:03:08.709Z,96105.11
2023-04-02T00:05:55.047Z,96101.67
2023-04-02T00:08:39.047Z,96100.83
2023-04-02T00:11:09.216Z,96097.41
2023-04-02T00:13:44.991Z,96099.42
2023-04-02T00:16:19.437Z,96099.74
2023-04-02T00:18:52.366Z,96102.02
2023-04-02T00:21:29.760Z,96098.79
2023-04-02T00:24:01.017Z,96102.34
2023-04-02T00:26:36.772Z,96102.10
2023-04-02T00:29:06.676Z,96107.02
2023-04-02T00:31:40.401Z,96103.89
2023-04-02T00:34:15.107Z,96106.55
2023-04-02T00:36:44.317Z,96104.86
2023-04-02T00:39:19.646Z,96104.14
2023-04-02T00:41:48.950Z,96104.91
2023-04-02T00:44:21.907Z,96106.86
2023-04-02T00:46:51.551Z,96106.77
2023-04-02T00:49:22.491Z,96107.04
2023-04-02T00:52:05.093Z,96107.63
2023-04-02T00:54:42.373Z,96107.92
2023-04-02T00:57:26.157Z,96108.84
2023-04-02T00:59:58.519Z,96112.98
2023-04-02T01:02:35.868Z,96109.97
2023-04-02T01:05:23.328Z,96112.62
2023-04-02T01:08:23.299Z,96109.89
2023-04-02T01:11:23.395Z,96112.73
2023-04-02T01:14:04.533Z,96112.27
2023-04-02T01:16:33.358Z,96115.54
2023-04-02T01:19:28.630Z,96118.53
2023-04-02T01:22:07.056Z,96123.47
2023-04-02T01:24:37.489Z,96124.38
2023-04-02T01:27:33.215Z,96128.02
2023-04-02T01:30:03.540Z,96127.11
2023-04-02T01:32:32.323Z,96129.03
2023-04-02T01:35:01.416Z,96130.17
2023-04-02T01:37:45.016Z,96130.28
2023-04-02T01:40:31.340Z,96133.73
2023-04-02T01:43:09.645Z,96135.77
2023-04-02T01:45:37.961Z,96137.55
2023-04-02T01:48:17.949Z,96138.00
2023-04-02T01:50:49.949Z,96139.61
2023-04-02T01:53:19.781Z,96136.00
2023-04-02T01:55:57.137Z,96132.40
2023-04-02T01:58:31.698Z,96134.94
2023-04-02T02:01:20.121Z,96138.99
2023-04-02T02:03:52.109Z,96143.78
2023-04-02T02:06:20.747Z,96144.09
2023-04-02T02:08:57.027Z,96146.46
2023-04-02T02:11:29.407Z,96149.33
2023-04-02T02:14:06.493Z,96152.88
2023-04-02T02:16:42.111Z,96153.23
2023-04-02T02:19:27.267Z,96151.15
2023-04-02T02:22:03.336Z,96152.17
2023-04-02T02:24:33.796Z,96152.91
2023-04-02T02:27:14.467Z,96151.20
2023-04-02T02:29:44.686Z,96153.36
2023-04-02T02:32:14.786Z,96153.30
2023-04-02T02:34:54.559Z,96153.40
2023-04-02T02:37:31.237Z,96153.70
2023-04-02T02:40:04.478Z,96155.80
2023-04-02T02:42:42.118Z,96161.30
2023-04-02T02:45:19.307Z,96160.71
2023-04-02T02:47:49.844Z,96164.76
2023-04-02T02:50:25.841Z,96164.04
2023-04-02T02:52:58.055Z,96164.06
2023-04-02T02:55:34.587Z,96165.20
2023-04-02T02:58:19.509Z,96169.55
2023-04-02T03:00:56.629Z,96166.20
2023-04-02T03:03:29.543Z,96168.51
2023-04-02T03:06:10.688Z,96169.68
2023-04-02T03:08:53.684Z,96168.22
2023-04-02T03:11:33.435Z,96168.63
2023-04-02T03:14:14.789Z,96170.55
2023-04-02T03:16:48.923Z,96176.26
2023-04-02T03:19:42.167Z,96176.21
2023-04-02T03:22:40.155Z,96180.45
2023-04-02T03:25:30.949Z,96178.44
2023-04-02T03:28:06.404Z,96183.45
2023-04-02T03:30:43.122Z,96183.66
2023-04-02T03:33:21.841Z,96185.95
2023-04-02T03:36:04.014Z,96188.15
2023-04-02T03:38:44.458Z,96194.30
2023-04-02T03:41:21.475Z,96199.04
2023-04-02T03:44:02.342Z,96201.77
2023-04-02T03:46:39.832Z,96204.92
2023-04-02T03:49:31.463Z,96207.52
2023-04-02T03:52:08.107Z,96209.20
2023-04-02T03:54:38.177Z,96211.77
2023-04-02T03:57:22.272Z,96213.41
2023-04-02T04:00:05.496Z,96212.34
2023-04-02T04:02:52.313Z,96215.19
2023-04-02T04:05:24.280Z,96213.30
2023-04-02T04:08:01.251Z,96219.17
2023-04-02T04:10:31.864Z,96218.63
2023-04-02T04:13:09.818Z,96221.98
2023-04-02T04:16:01.587Z,96219.62
2023-04-02T04:18:38.032Z,96224.34
2023-04-02T04:21:39.993Z,96228.02
2023-04-02T04:24:39.390Z,96232.52
2023-04-02T04:27:34.802Z,96236.20
2023-04-02T04:30:14.955Z,96240.89
2023-04-02T04:33:11.355Z,96242.23
2023-04-02T04:35:46.591Z,96244.23
2023-04-02T04:38:27.884Z,96244.35
2023-04-02T04:41:19.689Z,96246.08
2023-04-02T04:44:10.206Z,96247.38
2023-04-02T04:47:23.400Z,96247.73
2023-04-02T04:49:59.506Z,96251.92
2023-04-02T04:52:34.637Z,96253.35
2023-04-02T04:55:29.749Z,96256.77
2023-04-02T04:58:17.167Z,96259.27
2023-04-02T05:00:53.365Z,96262.77
2023-04-02T05:04:06.808Z,96263.86
2023-04-02T05:06:40.569Z,96263.60
2023-04-02T05:09:51.844Z,96267.56
2023-04-02T05:13:02.135Z,96269.52
2023-04-02T05:15:42.261Z,96273.90
2023-04-02T05:18:46.873Z,96275.73
2023-04-02T05:21:50.650Z,96276.88
2023-04-02T05:24:29.396Z,96280.30
2023-04-02T05:27:03.654Z,96284.13
2023-04-02T05:29:37.573Z,96286.34
2023-04-02T05:32:14.946Z,96290.31
2023-04-02T05:34:52.808Z,96293.21
2023-04-02T05:37:24.715Z,96295.13
2023-04-02T05:39:57.008Z,96297.64
2023-04-02T05:42:31.063Z,96300.89
2023-04-02T05:45:35.665Z,96297.86
2023-04-02T05:48:21.535Z,96299.39
2023-04-02T05:50:54.514Z,96305.24
2023-04-02T05:53:41.479Z,96307.66
2023-04-02T05:56:20.901Z,96306.94
2023-04-02T05:58:55.029Z,96311.48
2023-04-02T06:01:38.218Z,96310.33
2023-04-02T06:04:35.765Z,96317.02
2023-04-02T06:07:28.577Z,96315.47
2023-04-02T06:10:30.487Z,96317.45
2023-04-02T06:13:04.492Z,96316.66
2023-04-02T06:15:38.708Z,96318.83
2023-04-02T06:18:17.938Z,96322.02
2023-04-02T06:20:46.662Z,96326.05
2023-04-02T06:23:41.930Z,96325.27
2023-04-02T06:26:27.226Z,96327.02
2023-04-02T06:29:08.533Z,96329.73
2023-04-02T06:31:50.842Z,96327.96
2023-04-02T06:34:23.419Z,96332.77
2023-04-02T06:36:59.990Z,96334.78
2023-04-02T06:39:29.041Z,96335.01
2023-04-02T06:42:22.519Z,96331.71
2023-04-02T06:45:03.693Z,96332.23
2023-04-02T06:47:50.596Z,96333.77
2023-04-02T06:51:05.681Z,96334.90
2023-04-02T06:53:41.276Z,96336.57
2023-04-02T06:56:12.983Z,96336.98
2023-04-02T06:58:42.040Z,96338.42
2023-04-02T07:01:18.057Z,96341.95
2023-04-02T07:03:46.520Z,96344.48
2023-04-02T07:06:21.861Z,96343.83
2023-04-02T07:08:51.874Z,96342.98
2023-04-02T07:11:22.419Z,96346.60
2023-04-02T07:13:52.922Z,96346.79
2023-04-02T07:16:25.731Z,96350.66
2023-04-02T07:18:55.981Z,96353.79
2023-04-02T07:21:26.635Z,96359.12
2023-04-02T07:23:55.665Z,96361.14
2023-04-02T07:26:27.431Z,96362.84
2023-04-02T07:28:56.533Z,96369.91
2023-04-02T07:31:27.672Z,96374.09
2023-04-02T07:34:00.326Z,96374.69
2023-04-02T07:36:29.592Z,96376.84
2023-04-02T07:38:57.675Z,96374.98
2023-04-02T07:41:26.599Z,96376.66
2023-04-02T07:43:54.747Z,96379.45
2023-04-02T07:46:23.050Z,96379.72
2023-04-02T07:48:51.260Z,96378.40
2023-04-02T07:51:23.193Z,96381.84
2023-04-02T07:53:56.157Z,96382.92
2023-04-02T07:56:25.739Z,96385.48
2023-04-02T07:58:54.853Z,96385.95
2023-04-02T08:01:25.967Z,96385.16
2023-04-02T08:03:56.168Z,96383.93
2023-04-02T08:06:25.138Z,96386.05
2023-04-02T08:08:56.060Z,96388.65
2023-04-02T08:11:24.424Z,96385.14
2023-04-02T08:13:52.445Z,96384.90
2023-04-02T08:16:20.948Z,96385.43
2023-04-02T08:18:49.372Z,96386.85
2023-04-02T08:21:17.752Z,96385.77
2023-04-02T08:23:46.016Z,96386.53
2023-04-02T08:26:18.909Z,96386.77
2023-04-02T08:28:47.284Z,96388.41
2023-04-02T08:31:15.480Z,96390.92
2023-04-02T08:33:43.670Z,96393.07
2023-04-02T08:36:19.428Z,96398.55
2023-04-02T08:38:47.643Z,96398.75
2023-04-02T08:41:23.313Z,96401.63
2023-04-02T08:44:24.560Z,96402.44
2023-04-02T08:47:04.106Z,96404.11
2023-04-02T08:49:44.927Z,96408.69
2023-04-02T08:52:28.836Z,96409.34
2023-04-02T08:54:58.230Z,96409.95
2023-04-02T08:57:59.059Z,96408.34
2023-04-02T09:00:41.880Z,96411.02
2023-04-02T09:03:17.731Z,96411.86
2023-04-02T09:05:47.581Z,96416.91
2023-04-02T09:08:24.580Z,96415.14
2023-04-02T09:11:05.698Z,96419.31
2023-04-02T09:13:37.783Z,96415.95
2023-04-02T09:16:11.251Z,96419.06
2023-04-02T09:18:40.053Z,96419.73
2023-04-02T09:21:35.060Z,96420.77
2023-04-02T09:24:05.223Z,96418.23
2023-04-02T09:26:34.486Z,96421.89
2023-04-02T09:29:05.526Z,96421.88
2023-04-02T09:31:40.842Z,96426.30
2023-04-02T09:34:32.537Z,96425.66
2023-04-02T09:37:17.053Z,96426.92
2023-04-02T09:39:46.128Z,96428.55
2023-04-02T09:42:41.055Z,96426.06
2023-04-02T09:45:25.709Z,96427.79
2023-04-02T09:47:55.791Z,96426.08
2023-04-02T09:50:23.915Z,96425.48
2023-04-02T09:52:51.924Z,96425.64
2023-04-02T09:55:22.616Z,96424.30
2023-04-02T09:57:52.226Z,96426.40
2023-04-02T10:03:17.969Z,96426.64
2023-04-02T10:05:47.120Z,96427.27
2023-04-02T10:08:20.593Z,96427.48
2023-04-02T10:10:53.039Z,96427.41
2023-04-02T10:13:40.633Z,96431.51
2023-04-02T10:16:21.495Z,96432.09
2023-04-02T10:19:14.988Z,96430.16
2023-04-02T10:21:46.232Z,96433.66
2023-04-02T10:24:16.276Z,96431.98
2023-04-02T10:27:09.842Z,96428.80
2023-04-02T10:29:48.550Z,96432.17
2023-04-02T10:32:23.895Z,96430.16
2023-04-02T10:35:03.623Z,96431.09
2023-04-02T10:37:49.837Z,96431.10
2023-04-02T10:40:33.374Z,96430.33
2023-04-02T10:43:14.160Z,96428.62
2023-04-02T10:45:54.625Z,96427.85
2023-04-02T10:48:52.089Z,96431.87
2023-04-02T10:52:03.527Z,96429.13
2023-04-02T10:54:49.835Z,96428.98
2023-04-02T10:57:36.900Z,96431.84
2023-04-02T11:00:16.671Z,96432.08
2023-04-02T11:02:54.231Z,96435.31
2023-04-02T11:05:47.872Z,96439.73
2023-04-02T11:08:22.583Z,96436.73
2023-04-02T11:11:14.123Z,96434.71
2023-04-02T11:13:52.929Z,96434.55
2023-04-02T11:16:22.158Z,96440.64
2023-04-02T11:19:15.695Z,96434.92
2023-04-02T11:21:57.181Z,96437.20
2023-04-02T11:24:30.478Z,96438.67
2023-04-02T11:27:23.725Z,96435.69
2023-04-02T11:29:54.796Z,96434.98
2023-04-02T11:32:27.765Z,96433.87
2023-04-02T11:35:06.547Z,96437.21
2023-04-02T11:37:45.241Z,96437.75
2023-04-02T11:40:16.269Z,96440.15
2023-04-02T11:42:46.480Z,96438.21
2023-04-02T11:45:21.415Z,96438.76
2023-04-02T11:48:01.800Z,96443.39
2023-04-02T11:50:39.520Z,96443.87
2023-04-02T11:53:10.902Z,96450.65
2023-04-02T11:55:41.777Z,96454.58
2023-04-02T11:58:32.559Z,96453.06
2023-04-02T12:01:11.894Z,96451.70
2023-04-02T12:04:01.520Z,96453.40
2023-04-02T12:06:47.590Z,96455.59
2023-04-02T12:09:25.490Z,96452.58
2023-04-02T12:12:00.357Z,96453.64
2023-04-02T12:14:36.971Z,96455.85
2023-04-02T12:17:18.511Z,96458.23
2023-04-02T12:19:50.035Z,96457.91
2023-04-02T12:22:25.156Z,96458.39
2023-04-02T12:24:57.233Z,96459.09
2023-04-02T12:27:28.210Z,96456.40
2023-04-02T12:30:13.843Z,96456.64
2023-04-02T12:32:45.519Z,96461.41
2023-04-02T12:35:36.077Z,96460.34
2023-04-02T12:38:04.283Z,96462.18
2023-04-02T12:40:32.344Z,96460.34
2023-04-02T12:43:00.641Z,96456.86
2023-04-02T12:45:33.727Z,96456.98
2023-04-02T12:48:05.511Z,96458.00
2023-04-02T12:50:34.977Z,96455.77
2023-04-02T12:53:03.658Z,96454.79
2023-04-02T12:55:33.660Z,96453.07
2023-04-02T12:58:01.977Z,96453.80
2023-04-02T13:00:32.210Z,96453.71
2023-04-02T13:03:01.216Z,96456.18
2023-04-02T13:05:44.629Z,96456.48
2023-04-02T13:08:31.311Z,96457.73
2023-04-02T13:11:05.034Z,96459.44
2023-04-02T13:13:35.956Z,96456.82
2023-04-02T13:16:10.013Z,96457.48
2023-04-02T13:18:38.849Z,96454.59
2023-04-02T13:21:28.124Z,96456.91
2023-04-02T13:23:59.603Z,96458.60
2023-04-02T13:26:29.500Z,96460.70
2023-04-02T13:28:59.012Z,96453.55
2023-04-02T13:31:33.866Z,96456.55
2023-04-02T13:34:02.430Z,96455.91
2023-04-02T13:36:30.766Z,96451.27
2023-04-02T13:38:58.869Z,96455.80
2023-04-02T13:41:32.432Z,96460.40
2023-04-02T13:44:04.975Z,96469.06
2023-04-02T13:46:35.369Z,96464.66
2023-04-02T13:49:03.513Z,96463.85
2023-04-02T13:51:38.921Z,96460.50
2023-04-02T13:54:14.957Z,96463.75
2023-04-02T13:56:43.152Z,96459.88
2023-04-02T13:59:11.610Z,96464.33
2023-04-02T14:01:41.575Z,96465.02
2023-04-02T14:04:13.791Z,96461.20
2023-04-02T14:07:16.172Z,96462.12
2023-04-02T14:09:54.206Z,96461.33
2023-04-02T14:12:50.036Z,96463.48
2023-04-02T14:15:39.772Z,96468.23
2023-04-02T14:18:25.460Z,96467.52
2023-04-02T14:21:11.762Z,96467.83
2023-04-02T14:23:52.630Z,96469.04
2023-04-02T14:26:41.391Z,96470.27
2023-04-02T14:29:15.398Z,96473.16
2023-04-02T14:31:55.697Z,96472.34
2023-04-02T14:34:52.810Z,96474.80
2023-04-02T14:37:23.649Z,96471.39
2023-04-02T14:40:25.821Z,96466.92
2023-04-02T14:43:06.387Z,96469.10
2023-04-02T14:45:34.809Z,96465.86
2023-04-02T14:48:27.031Z,96464.10
2023-04-02T14:51:14.791Z,96463.09
2023-04-02T14:54:02.984Z,96464.02
2023-04-02T14:56:36.520Z,96462.60
2023-04-02T14:59:25.521Z,96469.47
2023-04-02T15:01:57.584Z,96470.58
2023-04-02T15:04:37.440Z,96467.14
2023-04-02T15:07:16.466Z,96471.75
2023-04-02T15:09:51.610Z,96470.93
2023-04-02T15:12:25.928Z,96473.11
2023-04-02T15:15:01.064Z,96473.88
2023-04-02T15:17:29.477Z,96479.34
2023-04-02T15:20:12.785Z,96477.98
2023-04-02T15:23:11.153Z,96478.41
2023-04-02T15:26:01.664Z,96478.63
2023-04-02T15:28:51.850Z,96481.04
2023-04-02T15:31:25.173Z,96479.17
2023-04-02T15:34:09.498Z,96477.38
2023-04-02T15:36:45.665Z,96478.92
2023-04-02T15:39:31.612Z,96484.66
2023-04-02T15:42:13.443Z,96487.35
2023-04-02T15:45:11.526Z,96490.42
2023-04-02T15:47:53.193Z,96493.79
2023-04-02T15:50:34.333Z,96494.61
2023-04-02T15:53:33.636Z,96497.96
2023-04-02T15:56:34.435Z,96503.71
2023-04-02T15:59:24.216Z,96512.39
2023-04-02T16:02:25.950Z,96513.47
2023-04-02T16:05:13.405Z,96520.83
2023-04-02T16:08:13.531Z,96525.67
2023-04-02T16:10:43.225Z,96528.71
2023-04-02T16:13:31.255Z,96533.23
2023-04-02T16:16:25.975Z,96538.95
2023-04-02T16:19:02.258Z,96537.71
2023-04-02T16:21:41.886Z,96535.64
2023-04-02T16:24:23.723Z,96536.01
2023-04-02T16:26:57.589Z,96537.98
2023-04-02T16:29:57.206Z,96539.95
2023-04-02T16:32:36.045Z,96540.60
2023-04-02T16:38:07.912Z,96548.48
2023-04-02T16:41:08.396Z,96558.36
2023-04-02T16:44:05.904Z,96561.69
2023-04-02T16:46:41.319Z,96560.97
2023-04-02T16:50:06.251Z,96564.74
2023-04-02T16:52:36.844Z,96562.70
2023-04-02T16:55:19.812Z,96564.52
2023-04-02T16:58:01.087Z,96565.68
2023-04-02T17:00:44.102Z,96570.29
2023-04-02T17:03:19.232Z,96568.19
2023-04-02T17:05:52.255Z,96574.63
2023-04-02T17:08:24.401Z,96574.85
2023-04-02T17:11:06.909Z,96580.25
2023-04-02T17:14:06.418Z,96581.30
2023-04-02T17:16:46.471Z,96587.13
2023-04-02T17:19:16.692Z,96592.36
2023-04-02T17:21:48.564Z,96596.97
2023-04-02T17:24:23.280Z,96600.63
2023-04-02T17:27:03.861Z,96599.79
2023-04-02T17:29:40.996Z,96599.96
2023-04-02T17:32:23.132Z,96607.11
2023-04-02T17:34:51.135Z,96606.42
2023-04-02T17:37:33.541Z,96610.35
2023-04-02T17:40:48.789Z,96612.17
2023-04-02T17:43:38.775Z,96616.88
2023-04-02T17:46:34.696Z,96618.39
2023-04-02T17:49:12.909Z,96627.05
2023-04-02T17:52:07.300Z,96631.63
2023-04-02T17:54:53.597Z,96631.00
2023-04-02T17:57:39.959Z,96631.81
2023-04-02T18:00:45.757Z,96633.64
2023-04-02T18:03:36.901Z,96635.02
2023-04-02T18:06:46.366Z,96637.05
2023-04-02T18:09:42.750Z,96645.66
2023-04-02T18:12:13.585Z,96650.55
2023-04-02T18:15:01.344Z,96651.04
2023-04-02T18:17:51.431Z,96648.81
2023-04-02T18:20:28.389Z,96652.95
2023-04-02T18:23:12.217Z,96655.66
2023-04-02T18:25:56.842Z,96657.73
2023-04-02T18:28:47.447Z,96656.27
2023-04-02T18:31:47.458Z,96652.58
2023-04-02T18:34:23.985Z,96655.35
2023-04-02T18:37:00.970Z,96655.45
2023-04-02T18:39:44.289Z,96656.09
2023-04-02T18:42:41.449Z,96656.53
2023-04-02T18:45:25.953Z,96656.24
2023-04-02T18:48:09.317Z,96658.84
2023-04-02T18:50:40.931Z,96662.45
2023-04-02T18:53:31.425Z,96665.23
2023-04-02T18:56:14.918Z,96673.08
2023-04-02T18:58:57.038Z,96672.13
2023-04-02T19:01:58.648Z,96672.48
2023-04-02T19:04:30.867Z,96673.48
2023-04-02T19:07:14.303Z,96676.98
2023-04-02T19:09:48.418Z,96674.77
2023-04-02T19:12:22.343Z,96676.94
2023-04-02T19:14:52.523Z,96678.52
2023-04-02T19:17:41.924Z,96677.23
2023-04-02T19:20:47.058Z,96676.77
2023-04-02T19:23:37.746Z,96676.92
2023-04-02T19:26:19.531Z,96680.52
2023-04-02T19:29:11.012Z,96679.82
2023-04-02T19:31:55.117Z,96682.77
2023-04-02T19:34:38.945Z,96684.27
2023-04-02T19:37:22.130Z,96686.11
2023-04-02T19:40:15.289Z,96693.17
2023-04-02T19:42:49.453Z,96696.02
2023-04-02T19:45:32.944Z,96700.45
2023-04-02T19:48:10.207Z,96712.08
2023-04-02T19:50:38.545Z,96718.67
2023-04-02T19:53:07.027Z,96722.61
2023-04-02T19:55:35.974Z,96728.17
2023-04-02T19:58:17.296Z,96731.98
2023-04-02T20:00:47.475Z,96735.44
2023-04-02T20:03:15.618Z,96735.73
2023-04-02T20:05:43.821Z,96740.48
2023-04-02T20:08:12.370Z,96745.70
2023-04-02T20:10:42.163Z,96748.44
2023-04-02T20:13:10.656Z,96751.84
2023-04-02T20:15:41.786Z,96751.91
2023-04-02T20:18:11.129Z,96754.91
2023-04-02T20:20:39.540Z,96752.52
2023-04-02T20:23:07.866Z,96751.48
2023-04-02T20:25:36.029Z,96753.98
2023-04-02T20:28:04.515Z,96754.56
2023-04-02T20:30:33.039Z,96754.46
2023-04-02T20:33:01.715Z,96754.48
2023-04-02T20:35:34.716Z,96755.02
2023-04-02T20:38:03.680Z,96756.16
2023-04-02T20:40:32.646Z,96753.88
2023-04-02T20:43:00.830Z,96758.27
2023-04-02T20:45:39.137Z,96754.91
2023-04-02T20:48:07.885Z,96755.71
2023-04-02T20:50:36.336Z,96753.27
2023-04-02T20:53:04.544Z,96750.85
2023-04-02T20:55:33.103Z,96746.98
2023-04-02T20:58:03.454Z,96746.84
2023-04-02T21:00:31.465Z,96745.88
2023-04-02T21:03:00.481Z,96745.25
2023-04-02T21:05:31.459Z,96748.73
2023-04-02T21:08:01.008Z,96754.16
2023-04-02T21:10:29.079Z,96754.89
2023-04-02T21:12:57.358Z,96754.70
2023-04-02T21:15:25.646Z,96755.23
2023-04-02T21:17:54.344Z,96753.09
2023-04-02T21:20:22.559Z,96753.98
2023-04-02T21:22:50.665Z,96754.09
2023-04-02T21:25:18.805Z,96751.30
2023-04-02T21:27:46.804Z,96752.00
2023-04-02T21:30:15.082Z,96752.92
2023-04-02T21:32:43.293Z,96752.45
2023-04-02T21:35:12.191Z,96750.28
2023-04-02T21:37:48.702Z,96753.11
2023-04-02T21:40:16.922Z,96754.30
2023-04-02T21:42:45.678Z,96752.98
2023-04-02T21:45:13.751Z,96754.92
2023-04-02T21:47:41.955Z,96752.14
2023-04-02T21:50:10.936Z,96754.77
2023-04-02T21:52:38.855Z,96755.08
2023-04-02T21:55:07.373Z,96752.38
2023-04-02T21:57:35.491Z,96751.27
2023-04-02T22:00:08.452Z,96752.14
2023-04-02T22:02:36.533Z,96748.48
2023-04-02T22:05:05.125Z,96750.63
2023-04-02T22:07:33.180Z,96749.93
2023-04-02T22:10:01.147Z,96750.23
2023-04-02T22:12:29.235Z,96751.23
2023-04-02T22:14:57.274Z,96749.45
2023-04-02T22:17:25.425Z,96753.23
2023-04-02T22:19:53.521Z,96752.72
2023-04-02T22:22:21.660Z,96753.65
2023-04-02T22:24:49.647Z,96756.14
2023-04-02T22:27:17.605Z,96755.59
2023-04-02T22:29:45.807Z,96756.90
2023-04-02T22:32:14.204Z,96756.42
2023-04-02T22:34:45.828Z,96757.64
2023-04-02T22:37:13.820Z,96757.38
2023-04-02T22:39:42.088Z,96758.70
2023-04-02T22:42:10.877Z,96761.98
2023-04-02T22:44:38.849Z,96764.27
2023-04-02T22:47:07.122Z,96765.32
2023-04-02T22:49:35.190Z,96762.92
2023-04-02T22:52:06.149Z,96763.04
2023-04-02T22:54:34.090Z,96761.42
2023-04-02T22:57:02.411Z,96765.67
2023-04-02T22:59:30.551Z,96769.87
2023-04-02T23:01:58.791Z,96773.41
2023-04-02T23:04:27.053Z,96772.83
2023-04-02T23:06:55.895Z,96775.50
2023-04-02T23:09:23.970Z,96780.64
2023-04-02T23:11:52.466Z,96783.70
2023-04-02T23:14:21.471Z,96784.73
2023-04-02T23:16:49.623Z,96787.32
2023-04-02T23:19:17.690Z,96787.88
2023-04-02T23:21:46.441Z,96791.45
2023-04-02T23:24:15.597Z,96790.83
2023-04-02T23:26:43.852Z,96788.44
2023-04-02T23:29:12.010Z,96785.64
2023-04-02T23:31:40.083Z,96784.77
2023-04-02T23:34:09.768Z,96785.19
2023-04-02T23:36:37.884Z,96786.41
2023-04-02T23:39:12.435Z,96787.50
2023-04-02T23:41:42.924Z,96791.35
2023-04-02T23:44:11.118Z,96791.71
2023-04-02T23:46:39.435Z,96793.27
2023-04-02T23:49:11.412Z,96796.48
2023-04-02T23:51:41.114Z,96797.94
2023-04-02T23:54:12.634Z,96798.23
2023-04-02T23:56:41.914Z,96797.55
2023-04-02T23:59:09.943Z,96800.66
